createdAt,value
2018-11-05T00:03:56.573Z,80.70
2018-11-05T00:09:00.411Z,80.50
2018-11-05T00:14:20.817Z,80.60
2018-11-05T00:19:24.568Z,80.80
2018-11-05T00:24:28.306Z,81.00
2018-11-05T00:29:32.072Z,81.10
2018-11-05T00:34:35.800Z,82.10
2018-11-05T00:39:39.537Z,81.50
2018-11-05T00:44:43.269Z,81.60
2018-11-05T00:49:47.004Z,81.50
2018-11-05T00:54:50.732Z,81.70
2018-11-05T00:59:54.505Z,81.70
2018-11-05T01:04:58.460Z,82.10
2018-11-05T01:10:02.193Z,81.80
2018-11-05T01:15:08.060Z,81.70
2018-11-05T01:20:12.908Z,82.00
2018-11-05T01:25:16.633Z,81.90
2018-11-05T01:30:20.410Z,82.00
2018-11-05T01:35:24.109Z,81.80
2018-11-05T01:40:27.836Z,82.30
2018-11-05T01:45:31.580Z,82.30
2018-11-05T01:50:35.420Z,82.60
2018-11-05T01:55:39.141Z,82.60
2018-11-05T02:00:42.868Z,83.00
2018-11-05T02:05:46.591Z,83.00
2018-11-05T02:10:50.303Z,83.70
2018-11-05T02:15:54.062Z,82.90
2018-11-05T02:20:57.781Z,83.20
2018-11-05T02:26:01.498Z,83.00
2018-11-05T02:31:05.226Z,82.90
2018-11-05T02:36:08.960Z,82.80
2018-11-05T02:41:12.700Z,82.70
2018-11-05T02:46:16.420Z,82.50
2018-11-05T02:51:20.335Z,82.30
2018-11-05T02:56:24.036Z,82.50
2018-11-05T03:01:27.772Z,82.70
2018-11-05T03:06:31.503Z,83.50
2018-11-05T03:11:35.239Z,83.10
2018-11-05T03:16:38.983Z,83.00
2018-11-05T03:21:42.705Z,82.90
2018-11-05T03:26:46.455Z,82.90
2018-11-05T03:31:50.176Z,83.20
2018-11-05T03:36:53.906Z,83.00
2018-11-05T03:41:57.640Z,82.90
2018-11-05T03:47:01.364Z,83.10
2018-11-05T03:52:05.312Z,83.30
2018-11-05T03:57:09.145Z,83.50
2018-11-05T04:02:12.876Z,83.60
2018-11-05T04:07:16.609Z,83.50
2018-11-05T04:12:20.339Z,83.40
2018-11-05T04:17:24.053Z,83.40
2018-11-05T04:22:27.772Z,83.80
2018-11-05T04:27:31.500Z,83.30
2018-11-05T04:32:35.206Z,83.50
2018-11-05T04:37:38.916Z,83.40
2018-11-05T04:42:42.661Z,83.20
2018-11-05T04:47:46.404Z,83.20
2018-11-05T04:52:50.156Z,83.70
2018-11-05T04:57:53.876Z,83.30
2018-11-05T05:02:57.613Z,83.90
2018-11-05T05:08:01.360Z,83.60
2018-11-05T05:13:05.304Z,83.30
2018-11-05T05:18:09.032Z,83.50
2018-11-05T05:23:12.828Z,83.60
2018-11-05T05:28:16.467Z,83.60
2018-11-05T05:33:20.238Z,83.60
2018-11-05T05:38:23.968Z,83.90
2018-11-05T05:43:27.676Z,84.10
2018-11-05T05:48:31.420Z,83.80
2018-11-05T05:53:35.148Z,83.80
2018-11-05T05:58:38.910Z,83.60
2018-11-05T06:03:43.638Z,83.80
2018-11-05T06:08:47.416Z,84.40
2018-11-05T06:13:51.136Z,83.80
2018-11-05T06:18:54.938Z,83.90
2018-11-05T06:23:58.647Z,83.60
2018-11-05T06:29:02.356Z,83.20
2018-11-05T06:34:06.214Z,83.30
2018-11-05T06:39:11.839Z,83.10
2018-11-05T06:44:16.692Z,83.20
2018-11-05T06:49:22.491Z,83.40
2018-11-05T06:54:27.344Z,83.60
2018-11-05T06:59:31.101Z,83.90
2018-11-05T07:04:34.819Z,83.80
2018-11-05T07:09:38.606Z,84.40
2018-11-05T07:14:42.288Z,84.20
2018-11-05T07:19:46.028Z,84.30
2018-11-05T07:24:49.776Z,83.80
2018-11-05T07:29:53.541Z,84.30
2018-11-05T07:34:57.264Z,83.90
2018-11-05T07:40:01.007Z,84.10
2018-11-05T07:45:06.439Z,84.10
2018-11-05T07:50:11.691Z,84.20
2018-11-05T07:55:16.463Z,84.20
2018-11-05T08:00:25.633Z,83.80
2018-11-05T08:05:29.384Z,83.90
2018-11-05T08:10:33.117Z,84.50
2018-11-05T08:15:36.832Z,84.20
2018-11-05T08:20:40.553Z,84.10
2018-11-05T08:25:44.319Z,84.00
2018-11-05T08:30:48.056Z,84.50
2018-11-05T08:35:51.820Z,84.10
2018-11-05T08:40:55.543Z,84.50
2018-11-05T08:45:59.271Z,84.30
2018-11-05T08:51:03.265Z,84.50
2018-11-05T08:56:06.723Z,83.90
2018-11-05T09:01:18.292Z,84.20
2018-11-05T09:06:22.034Z,84.70
2018-11-05T09:11:26.595Z,84.20
2018-11-05T09:16:29.808Z,84.50
2018-11-05T09:21:33.547Z,84.40
2018-11-05T09:26:37.284Z,85.70
2018-11-05T09:31:41.060Z,84.30
2018-11-05T09:36:44.788Z,84.80
2018-11-05T09:41:48.528Z,84.60
2018-11-05T09:46:52.224Z,84.10
2018-11-05T09:51:56.064Z,83.90
2018-11-05T09:56:59.907Z,83.80
2018-11-05T10:02:03.928Z,84.00
2018-11-05T10:07:07.728Z,84.40
2018-11-05T10:12:11.465Z,84.60
2018-11-05T10:17:15.252Z,84.40
2018-11-05T10:22:18.990Z,85.50
2018-11-05T10:27:22.941Z,85.00
2018-11-05T10:32:26.724Z,84.70
2018-11-05T10:37:30.527Z,85.90
2018-11-05T10:42:34.268Z,85.50
2018-11-05T10:47:38.543Z,85.00
2018-11-05T10:52:43.086Z,85.10
2018-11-05T10:57:47.052Z,85.30
2018-11-05T11:02:56.175Z,85.30
2018-11-05T11:08:00.688Z,84.90
2018-11-05T11:13:04.780Z,85.20
2018-11-05T11:18:08.510Z,84.70
2018-11-05T11:23:12.236Z,85.00
2018-11-05T11:28:16.035Z,84.90
2018-11-05T11:33:19.707Z,84.90
2018-11-05T11:38:23.432Z,83.80
2018-11-05T11:43:27.148Z,84.00
2018-11-05T11:48:30.868Z,84.00
2018-11-05T11:53:34.800Z,84.30
2018-11-05T11:58:38.308Z,83.90
2018-11-05T12:03:42.037Z,83.80
2018-11-05T12:08:45.803Z,83.30
2018-11-05T12:13:49.566Z,83.50
2018-11-05T12:18:53.268Z,83.70
2018-11-05T12:23:57.004Z,83.90
2018-11-05T12:29:00.752Z,84.00
2018-11-05T12:34:05.040Z,83.40
2018-11-05T12:39:09.624Z,83.70
2018-11-05T12:44:13.364Z,83.30
2018-11-05T12:49:17.112Z,83.40
2018-11-05T12:54:20.830Z,84.00
2018-11-05T12:59:24.565Z,83.70
2018-11-05T13:04:28.638Z,83.90
2018-11-05T13:09:32.372Z,83.70
2018-11-05T13:14:36.080Z,83.60
2018-11-05T13:19:39.860Z,83.60
2018-11-05T13:24:43.585Z,83.70
2018-11-05T13:29:47.381Z,83.50
2018-11-05T13:34:51.080Z,83.60
2018-11-05T13:39:54.791Z,83.10
2018-11-05T13:44:58.632Z,83.70
2018-11-05T13:50:02.546Z,83.80
2018-11-05T13:55:07.157Z,83.60
2018-11-05T14:00:12.637Z,83.60
2018-11-05T14:05:16.380Z,83.20
2018-11-05T14:10:20.972Z,83.90
2018-11-05T14:15:24.691Z,83.40
2018-11-05T14:20:28.423Z,83.30
2018-11-05T14:25:32.291Z,83.00
2018-11-05T14:30:35.980Z,83.50
2018-11-05T14:35:39.724Z,83.30
2018-11-05T14:40:38.501Z,83.20
2018-11-05T14:45:37.227Z,82.80
2018-11-05T14:50:36.398Z,82.50
2018-11-05T14:55:35.032Z,82.40
2018-11-05T15:00:33.828Z,82.60
2018-11-05T15:05:32.544Z,82.80
2018-11-05T15:10:31.323Z,82.80
2018-11-05T15:15:30.060Z,82.80
2018-11-05T15:20:28.860Z,82.70
2018-11-05T15:25:27.567Z,82.50
2018-11-05T15:30:26.281Z,82.00
2018-11-05T15:35:25.032Z,81.90
2018-11-05T15:40:23.770Z,82.00
2018-11-05T15:45:22.792Z,81.70
2018-11-05T15:50:22.149Z,81.80
2018-11-05T15:55:20.896Z,81.90
2018-11-05T16:00:20.952Z,82.00
2018-11-05T16:05:19.868Z,81.90
2018-11-05T16:10:18.564Z,82.60
2018-11-05T16:15:17.292Z,81.60
2018-11-05T16:20:17.308Z,81.60
2018-11-05T16:25:16.108Z,82.40
2018-11-05T16:30:16.149Z,81.60
2018-11-05T16:35:14.854Z,81.60
2018-11-05T16:40:16.720Z,81.50
2018-11-05T16:45:15.509Z,81.40
2018-11-05T16:50:16.946Z,81.30
2018-11-05T16:55:15.664Z,81.10
2018-11-05T17:00:14.819Z,81.10
2018-11-05T17:05:14.508Z,81.30
2018-11-05T17:10:14.176Z,81.20
2018-11-05T17:15:14.096Z,81.40
2018-11-05T17:20:14.700Z,81.50
2018-11-05T17:25:13.868Z,81.60
2018-11-05T17:30:15.970Z,81.60
2018-11-05T17:35:15.264Z,82.50
2018-11-05T17:40:15.270Z,81.60
2018-11-05T17:45:16.473Z,81.30
2018-11-05T17:50:17.316Z,81.20
2018-11-05T17:55:16.635Z,81.40
2018-11-05T18:00:16.567Z,81.40
2018-11-05T18:05:15.575Z,81.40
2018-11-05T18:10:14.329Z,81.90
2018-11-05T18:15:13.448Z,81.80
2018-11-05T18:20:13.215Z,81.60
2018-11-05T18:25:13.352Z,81.70
2018-11-05T18:30:12.781Z,81.40
2018-11-05T18:35:12.808Z,81.20
2018-11-05T18:40:13.368Z,81.60
2018-11-05T18:45:13.592Z,81.30
2018-11-05T18:50:15.062Z,81.60
2018-11-05T18:55:15.191Z,81.60
2018-11-05T19:00:20.636Z,81.00
2018-11-05T19:05:20.094Z,81.40
2018-11-05T19:10:18.819Z,81.00
2018-11-05T19:15:17.593Z,81.40
2018-11-05T19:20:16.608Z,81.70
2018-11-05T19:25:16.132Z,81.20
2018-11-05T19:30:21.167Z,81.60
2018-11-05T19:35:19.884Z,81.40
2018-11-05T19:40:19.212Z,81.20
2018-11-05T19:45:19.245Z,82.00
2018-11-05T19:50:19.261Z,81.50
2018-11-05T19:55:18.529Z,81.30
2018-11-05T20:00:20.039Z,81.70
2018-11-05T20:05:18.902Z,81.50
2018-11-05T20:10:17.661Z,81.90
2018-11-05T20:15:16.897Z,81.60
2018-11-05T20:20:16.933Z,82.00
2018-11-05T20:25:15.672Z,82.40
2018-11-05T20:30:16.786Z,81.80
2018-11-05T20:35:15.514Z,81.80
2018-11-05T20:40:15.798Z,80.90
2018-11-05T20:45:15.147Z,81.60
2018-11-05T20:50:14.817Z,81.40
2018-11-05T20:55:14.700Z,81.60
2018-11-05T21:00:14.949Z,81.50
2018-11-05T21:05:13.673Z,81.20
2018-11-05T21:10:13.367Z,80.90
2018-11-05T21:15:13.837Z,80.70
2018-11-05T21:20:13.080Z,80.60
2018-11-05T21:25:11.932Z,80.40
2018-11-05T21:30:12.664Z,80.40
2018-11-05T21:35:13.444Z,80.30
2018-11-05T21:40:13.288Z,79.80
2018-11-05T21:45:13.099Z,80.30
2018-11-05T21:50:13.494Z,79.50
2018-11-05T21:55:12.092Z,79.20
2018-11-05T22:00:13.617Z,81.10
2018-11-05T22:05:12.532Z,80.60
2018-11-05T22:10:11.983Z,80.40
2018-11-05T22:15:11.321Z,81.10
2018-11-05T22:20:11.168Z,80.20
2018-11-05T22:25:11.435Z,80.00
2018-11-05T22:30:10.968Z,80.00
2018-11-05T22:35:09.708Z,79.90
2018-11-05T22:40:11.339Z,80.60
2018-11-05T22:45:11.377Z,79.70
2018-11-05T22:50:10.303Z,79.50
2018-11-05T22:55:09.337Z,80.20
2018-11-05T23:00:17.255Z,79.10
2018-11-05T23:05:15.893Z,79.10
2018-11-05T23:10:14.611Z,80.10
2018-11-05T23:15:13.320Z,79.10
2018-11-05T23:20:12.072Z,79.40
2018-11-05T23:25:11.092Z,79.40
2018-11-05T23:30:11.288Z,79.20
2018-11-05T23:35:10.799Z,79.20
2018-11-05T23:40:09.704Z,79.50
2018-11-05T23:45:10.551Z,80.10
2018-11-05T23:50:09.595Z,79.20
2018-11-05T23:55:09.212Z,79.40
